Time;durP1;ratioP1;P1;durP2;ratioP2;P2;SDS_P1;SDS_P2;PMS_P1;PMS_P2;Temp;Humidity;BMP_temperature;BMP_pressure;BME280_temperature;BME280_humidity;BME280_pressure;Samples;Min_cycle;Max_cycle;Signal;HPM_P1;HPM_P2
2022/08/20 00:01:03;;;;;;;9.10;7.15;;;;;;;;;;5069418;28;20059;-77
2022/08/20 00:03:34;;;;;;;11.63;6.93;;;;;;;;;;5066596;28;20398;-77
2022/08/20 00:06:06;;;;;;;8.32;5.55;;;;;;;;;;5060600;28;20044;-76
2022/08/20 00:08:32;;;;;;;8.27;6.07;;;;;;;;;;5072422;28;20043;-77
2022/08/20 00:10:58;;;;;;;10.90;5.50;;;;;;;;;;5068818;28;20474;-77
2022/08/20 00:13:29;;;;;;;9.73;5.88;;;;;;;;;;5071417;28;20653;-77
2022/08/20 00:15:55;;;;;;;8.40;6.90;;;;;;;;;;5071849;28;20044;-76
2022/08/20 00:18:22;;;;;;;12.05;8.63;;;;;;;;;;5069984;28;20067;-76
2022/08/20 00:20:49;;;;;;;9.95;8.60;;;;;;;;;;5071341;28;20067;-77
2022/08/20 00:23:15;;;;;;;9.70;8.02;;;;;;;;;;5072367;28;20099;-76
2022/08/20 00:25:42;;;;;;;9.27;7.38;;;;;;;;;;5063345;28;20088;-76
2022/08/20 00:28:08;;;;;;;9.45;6.40;;;;;;;;;;5071844;28;20032;-77
2022/08/20 00:30:35;;;;;;;10.55;6.85;;;;;;;;;;5071458;28;20066;-76
2022/08/20 00:33:20;;;;;;;9.50;7.00;;;;;;;;;;5071772;28;20123;-77
2022/08/20 00:35:48;;;;;;;10.90;7.45;;;;;;;;;;5064412;28;20032;-77
2022/08/20 00:38:14;;;;;;;10.43;8.38;;;;;;;;;;5066817;28;20025;-76
2022/08/20 00:40:45;;;;;;;11.40;6.63;;;;;;;;;;5066717;28;20505;-76
2022/08/20 00:43:29;;;;;;;9.70;8.40;;;;;;;;;;5066139;28;20025;-76
2022/08/20 00:45:56;;;;;;;13.15;7.53;;;;;;;;;;5066825;28;20029;-76
2022/08/20 00:48:25;;;;;;;10.98;7.35;;;;;;;;;;5068927;28;20139;-76
2022/08/20 00:50:53;;;;;;;9.38;6.95;;;;;;;;;;5071129;28;20489;-77
2022/08/20 00:53:21;;;;;;;9.52;7.03;;;;;;;;;;5064169;28;20031;-76
2022/08/20 00:55:47;;;;;;;10.77;6.57;;;;;;;;;;5060958;28;20036;-77
2022/08/20 00:58:13;;;;;;;9.10;6.90;;;;;;;;;;5062916;28;20024;-76
2022/08/20 01:00:42;;;;;;;10.77;5.93;;;;;;;;;;5065696;28;20032;-76
2022/08/20 01:03:10;;;;;;;7.07;5.93;;;;;;;;;;5061327;28;20028;-76
2022/08/20 01:05:40;;;;;;;8.27;5.80;;;;;;;;;;5070769;28;20531;-77
2022/08/20 01:08:08;;;;;;;12.50;6.43;;;;;;;;;;5070701;28;20024;-77
2022/08/20 01:10:35;;;;;;;9.70;6.63;;;;;;;;;;5066916;28;20039;-76
2022/08/20 01:13:07;;;;;;;10.68;7.00;;;;;;;;;;5071049;28;20113;-77
2022/08/20 01:15:33;;;;;;;10.38;8.07;;;;;;;;;;5064746;28;20039;-77
2022/08/20 01:18:00;;;;;;;11.27;8.27;;;;;;;;;;5063603;28;20083;-76
2022/08/20 01:20:35;;;;;;;16.55;8.10;;;;;;;;;;5067868;28;20806;-77
2022/08/20 01:25:52;;;;;;;9.30;7.18;;;;;;;;;;5063299;28;20083;-77
2022/08/20 01:28:20;;;;;;;14.05;7.85;;;;;;;;;;5070277;28;20015;-77
2022/08/20 01:30:46;;;;;;;11.35;8.15;;;;;;;;;;5070132;28;20036;-76
2022/08/20 01:33:12;;;;;;;8.75;7.22;;;;;;;;;;5059568;28;20078;-77
2022/08/20 01:35:39;;;;;;;12.73;7.93;;;;;;;;;;5070133;28;20515;-76
2022/08/20 01:38:06;;;;;;;9.75;7.07;;;;;;;;;;5070311;28;20020;-77
2022/08/20 01:40:48;;;;;;;11.70;6.68;;;;;;;;;;5058027;28;20053;-76
2022/08/20 01:43:14;;;;;;;10.57;7.33;;;;;;;;;;5066313;28;20699;-77
2022/08/20 01:45:40;;;;;;;9.05;7.13;;;;;;;;;;5070319;28;20037;-77
2022/08/20 01:48:07;;;;;;;13.63;7.00;;;;;;;;;;5062602;28;20028;-76
2022/08/20 01:50:34;;;;;;;12.40;6.15;;;;;;;;;;5067203;28;20024;-77
2022/08/20 01:53:00;;;;;;;9.82;6.30;;;;;;;;;;5063891;28;20032;-76
2022/08/20 01:55:26;;;;;;;12.60;6.82;;;;;;;;;;5070760;28;20113;-77
2022/08/20 01:57:53;;;;;;;8.38;6.05;;;;;;;;;;5069906;28;20060;-76
2022/08/20 02:00:19;;;;;;;10.80;6.30;;;;;;;;;;5070480;28;20032;-77
2022/08/20 02:02:45;;;;;;;8.68;6.40;;;;;;;;;;5062554;28;20522;-76
2022/08/20 02:05:11;;;;;;;9.07;7.38;;;;;;;;;;5061069;28;20064;-77
2022/08/20 02:07:37;;;;;;;8.07;6.78;;;;;;;;;;5067154;28;20032;-76
2022/08/20 02:10:05;;;;;;;9.48;7.78;;;;;;;;;;5069034;28;20024;-76
2022/08/20 02:12:31;;;;;;;11.32;8.27;;;;;;;;;;5069472;28;20043;-76
2022/08/20 02:14:57;;;;;;;13.50;8.15;;;;;;;;;;5070511;28;20032;-76
2022/08/20 02:17:24;;;;;;;9.85;7.45;;;;;;;;;;5069116;28;20077;-76
2022/08/20 02:19:57;;;;;;;9.60;6.85;;;;;;;;;;5069001;28;20040;-76
2022/08/20 02:22:26;;;;;;;8.68;6.57;;;;;;;;;;5069727;28;20055;-77
2022/08/20 02:24:52;;;;;;;7.80;6.28;;;;;;;;;;5062503;28;20792;-76
2022/08/20 02:27:22;;;;;;;8.82;6.63;;;;;;;;;;5057203;28;20397;-77
2022/08/20 02:29:48;;;;;;;10.23;6.22;;;;;;;;;;5069738;28;20051;-77
2022/08/20 02:32:14;;;;;;;13.25;6.95;;;;;;;;;;5069744;28;20389;-77
2022/08/20 02:34:40;;;;;;;11.95;6.80;;;;;;;;;;5069412;28;20036;-76
2022/08/20 02:37:06;;;;;;;13.35;7.13;;;;;;;;;;5064662;28;20043;-77
2022/08/20 02:39:33;;;;;;;9.73;7.15;;;;;;;;;;5064287;28;20053;-76
2022/08/20 02:42:01;;;;;;;8.65;5.88;;;;;;;;;;5066894;28;20034;-76
2022/08/20 02:44:27;;;;;;;9.35;6.60;;;;;;;;;;5069506;28;20516;-77
2022/08/20 02:46:53;;;;;;;7.90;6.10;;;;;;;;;;5059657;28;20033;-77
2022/08/20 02:49:19;;;;;;;8.15;5.90;;;;;;;;;;5069422;28;20090;-77
2022/08/20 02:51:46;;;;;;;8.18;6.30;;;;;;;;;;5069443;28;20060;-77
2022/08/20 02:54:12;;;;;;;9.20;6.47;;;;;;;;;;5069245;28;20392;-77
2022/08/20 02:56:39;;;;;;;9.35;7.10;;;;;;;;;;5065275;28;20062;-77
2022/08/20 02:59:05;;;;;;;9.38;6.82;;;;;;;;;;5069035;28;20119;-76
2022/08/20 03:01:31;;;;;;;11.57;7.43;;;;;;;;;;5058903;28;20076;-76
2022/08/20 03:04:02;;;;;;;8.32;6.65;;;;;;;;;;5068881;28;20032;-77
2022/08/20 03:06:28;;;;;;;11.90;6.63;;;;;;;;;;5068848;28;20351;-76
2022/08/20 03:08:54;;;;;;;8.27;6.85;;;;;;;;;;5068345;28;20400;-77
2022/08/20 03:11:20;;;;;;;10.45;7.20;;;;;;;;;;5067606;28;20039;-76
2022/08/20 03:13:46;;;;;;;9.73;6.82;;;;;;;;;;5065157;28;20036;-76
2022/08/20 03:16:13;;;;;;;10.98;6.72;;;;;;;;;;5061155;28;20033;-76
2022/08/20 03:18:43;;;;;;;8.15;6.40;;;;;;;;;;5061307;28;20033;-77
2022/08/20 03:21:10;;;;;;;8.98;5.75;;;;;;;;;;5065565;28;20482;-77
2022/08/20 03:23:36;;;;;;;9.27;6.78;;;;;;;;;;5067916;28;20112;-77
2022/08/20 03:26:04;;;;;;;9.88;6.32;;;;;;;;;;5068414;28;20029;-76
2022/08/20 03:28:30;;;;;;;7.18;5.90;;;;;;;;;;5069171;28;20021;-77
2022/08/20 03:30:58;;;;;;;9.13;6.82;;;;;;;;;;5068759;28;20078;-76
2022/08/20 03:33:24;;;;;;;8.43;5.90;;;;;;;;;;5068614;28;20062;-77
2022/08/20 03:35:50;;;;;;;9.63;6.10;;;;;;;;;;5072497;28;20028;-77
2022/08/20 03:38:18;;;;;;;7.65;5.80;;;;;;;;;;5056710;28;20370;-77
2022/08/20 03:40:44;;;;;;;8.85;6.05;;;;;;;;;;5057686;28;20513;-77
2022/08/20 03:43:11;;;;;;;9.45;6.53;;;;;;;;;;5072766;28;20033;-76
2022/08/20 03:45:38;;;;;;;10.90;6.60;;;;;;;;;;5072445;28;20033;-76
2022/08/20 03:48:06;;;;;;;7.90;6.18;;;;;;;;;;5078506;28;20078;-77
2022/08/20 03:50:32;;;;;;;9.88;6.28;;;;;;;;;;5061790;28;20050;-76
2022/08/20 03:52:59;;;;;;;8.48;6.45;;;;;;;;;;5064578;28;20483;-76
2022/08/20 03:55:26;;;;;;;10.07;6.00;;;;;;;;;;5063656;28;20033;-76
2022/08/20 03:57:58;;;;;;;8.73;6.35;;;;;;;;;;5067232;28;20047;-76
2022/08/20 04:00:39;;;;;;;11.63;5.90;;;;;;;;;;5072256;28;20028;-76
2022/08/20 04:03:07;;;;;;;7.07;5.65;;;;;;;;;;5068491;28;20119;-76
2022/08/20 04:05:33;;;;;;;10.07;5.70;;;;;;;;;;5055588;28;20025;-76
2022/08/20 04:08:00;;;;;;;12.70;6.55;;;;;;;;;;5065077;28;20059;-76
2022/08/20 04:10:26;;;;;;;9.60;6.28;;;;;;;;;;5066823;28;20055;-77
2022/08/20 04:12:52;;;;;;;10.43;6.50;;;;;;;;;;5072092;28;20059;-77
2022/08/20 04:15:19;;;;;;;8.85;6.40;;;;;;;;;;5070331;28;20059;-77
2022/08/20 04:17:46;;;;;;;10.90;6.93;;;;;;;;;;5071507;28;20037;-76
2022/08/20 04:20:13;;;;;;;9.70;6.28;;;;;;;;;;5067946;28;20737;-77
2022/08/20 04:22:39;;;;;;;7.47;5.82;;;;;;;;;;5067089;28;20051;-77
2022/08/20 04:25:07;;;;;;;9.23;6.10;;;;;;;;;;5071459;28;20024;-77
2022/08/20 04:27:35;;;;;;;11.95;5.40;;;;;;;;;;5071286;28;20035;-76
2022/08/20 04:30:02;;;;;;;10.25;5.80;;;;;;;;;;5064525;28;20032;-77
2022/08/20 04:32:29;;;;;;;11.23;6.22;;;;;;;;;;5071332;28;20067;-77
2022/08/20 04:34:55;;;;;;;13.07;6.65;;;;;;;;;;5067868;28;20459;-77
2022/08/20 04:37:21;;;;;;;8.48;6.38;;;;;;;;;;5065636;28;20493;-76
2022/08/20 04:40:52;;;;;;;8.10;6.15;;;;;;;;;;5070492;28;20044;-76
2022/08/20 04:42:37;;;;;;;9.20;6.10;;;;;;;;;;5070868;28;20117;-77
2022/08/20 04:45:05;;;;;;;7.68;5.63;;;;;;;;;;5063449;28;20035;-77
2022/08/20 04:47:31;;;;;;;7.82;6.47;;;;;;;;;;5060296;28;20473;-77
2022/08/20 04:50:00;;;;;;;9.82;5.32;;;;;;;;;;5069410;28;20073;-77
2022/08/20 04:52:27;;;;;;;8.75;5.60;;;;;;;;;;5071350;28;20446;-77
2022/08/20 04:54:55;;;;;;;9.25;5.97;;;;;;;;;;5065178;28;20412;-76
2022/08/20 04:57:22;;;;;;;9.43;5.90;;;;;;;;;;5070788;28;20074;-76
2022/08/20 04:59:49;;;;;;;8.82;6.75;;;;;;;;;;5071146;28;20089;-77
2022/08/20 05:02:17;;;;;;;9.90;6.18;;;;;;;;;;5068879;28;20389;-77
2022/08/20 05:04:43;;;;;;;8.82;7.18;;;;;;;;;;5068492;28;20447;-77
2022/08/20 05:07:11;;;;;;;8.93;6.75;;;;;;;;;;5062509;28;20359;-77
2022/08/20 05:09:37;;;;;;;11.18;6.15;;;;;;;;;;5071730;28;20024;-77
2022/08/20 05:12:04;;;;;;;8.60;5.82;;;;;;;;;;5063850;28;20040;-77
2022/08/20 05:14:30;;;;;;;8.10;5.68;;;;;;;;;;5069194;28;20090;-76
2022/08/20 05:16:59;;;;;;;11.13;5.93;;;;;;;;;;5070312;28;20036;-77
2022/08/20 05:19:27;;;;;;;8.05;5.45;;;;;;;;;;5070688;28;20068;-77
2022/08/20 05:21:54;;;;;;;7.18;5.72;;;;;;;;;;5070012;28;20040;-77
2022/08/20 05:24:20;;;;;;;8.40;4.65;;;;;;;;;;5071111;28;20067;-77
2022/08/20 05:26:46;;;;;;;11.65;5.85;;;;;;;;;;5070488;28;20047;-77
2022/08/20 05:29:12;;;;;;;8.18;5.80;;;;;;;;;;5070976;28;20087;-77
2022/08/20 05:31:38;;;;;;;7.30;5.72;;;;;;;;;;5063996;28;20119;-77
2022/08/20 05:34:09;;;;;;;7.00;5.38;;;;;;;;;;5068843;28;20619;-77
2022/08/20 05:36:36;;;;;;;9.65;4.75;;;;;;;;;;5069933;28;20033;-77
2022/08/20 05:39:02;;;;;;;6.53;4.80;;;;;;;;;;5070442;28;20045;-76
2022/08/20 05:41:28;;;;;;;10.27;5.15;;;;;;;;;;5070610;28;20485;-76
2022/08/20 05:43:54;;;;;;;5.18;4.03;;;;;;;;;;5069777;28;20021;-77
2022/08/20 05:46:21;;;;;;;6.80;4.60;;;;;;;;;;5070158;28;20060;-77
2022/08/20 05:48:47;;;;;;;11.65;4.85;;;;;;;;;;5070167;28;20035;-76
2022/08/20 05:51:14;;;;;;;8.48;4.47;;;;;;;;;;5070128;28;20039;-77
2022/08/20 05:53:40;;;;;;;8.30;5.20;;;;;;;;;;5057457;28;20052;-77
2022/08/20 05:56:10;;;;;;;13.60;5.38;;;;;;;;;;5068076;28;20839;-77
2022/08/20 05:58:36;;;;;;;6.53;4.55;;;;;;;;;;5069989;28;20024;-76
2022/08/20 06:01:02;;;;;;;6.20;4.40;;;;;;;;;;5070250;28;20068;-77
2022/08/20 06:06:13;;;;;;;6.85;4.53;;;;;;;;;;5058547;28;20155;-77
2022/08/20 06:08:40;;;;;;;8.80;4.65;;;;;;;;;;5067143;28;20052;-77
2022/08/20 06:11:06;;;;;;;6.43;4.43;;;;;;;;;;5067534;28;20036;-77
2022/08/20 06:13:32;;;;;;;8.73;4.95;;;;;;;;;;5066832;28;20028;-77
2022/08/20 06:15:58;;;;;;;7.38;4.88;;;;;;;;;;5050642;28;20623;-77
2022/08/20 06:18:24;;;;;;;7.60;4.97;;;;;;;;;;5057085;28;20069;-77
2022/08/20 06:20:50;;;;;;;5.97;4.75;;;;;;;;;;5056373;28;20416;-77
2022/08/20 06:23:17;;;;;;;7.00;4.45;;;;;;;;;;5068927;28;20039;-77
2022/08/20 06:25:43;;;;;;;8.77;4.70;;;;;;;;;;5052414;28;20519;-76
2022/08/20 06:28:09;;;;;;;7.65;4.68;;;;;;;;;;5069077;28;20047;-77
2022/08/20 06:30:35;;;;;;;10.88;4.88;;;;;;;;;;5060324;28;20056;-77
2022/08/20 06:33:01;;;;;;;8.90;4.32;;;;;;;;;;5066284;28;20048;-77
2022/08/20 06:35:27;;;;;;;8.48;4.30;;;;;;;;;;5060473;28;20108;-76
2022/08/20 06:37:56;;;;;;;7.85;4.95;;;;;;;;;;5068646;28;20082;-77
2022/08/20 06:40:23;;;;;;;8.10;4.75;;;;;;;;;;5069352;28;20571;-77
2022/08/20 06:42:50;;;;;;;7.43;4.93;;;;;;;;;;5069924;28;20450;-77
2022/08/20 06:45:18;;;;;;;7.47;3.42;;;;;;;;;;5066316;28;20108;-77
2022/08/20 06:47:44;;;;;;;5.53;4.05;;;;;;;;;;5066559;28;20024;-77
2022/08/20 06:50:12;;;;;;;8.63;4.57;;;;;;;;;;5077237;28;20051;-77
2022/08/20 06:52:39;;;;;;;9.57;4.53;;;;;;;;;;5063991;28;20465;-77
2022/08/20 06:55:06;;;;;;;6.10;3.75;;;;;;;;;;5068228;28;20025;-77
2022/08/20 06:57:33;;;;;;;8.20;4.65;;;;;;;;;;5068299;28;20039;-77
2022/08/20 06:59:59;;;;;;;7.53;3.92;;;;;;;;;;5069172;28;20094;-77
2022/08/20 07:02:25;;;;;;;7.57;3.70;;;;;;;;;;5080705;28;20064;-77
2022/08/20 07:04:52;;;;;;;8.68;4.45;;;;;;;;;;5053037;28;20052;-77
2022/08/20 07:07:19;;;;;;;5.47;3.90;;;;;;;;;;5077750;28;20043;-77
2022/08/20 07:09:45;;;;;;;5.75;3.83;;;;;;;;;;5073852;28;20731;-77
2022/08/20 07:12:12;;;;;;;6.95;3.95;;;;;;;;;;5076525;28;20048;-77
2022/08/20 07:14:38;;;;;;;5.63;4.22;;;;;;;;;;5078768;28;20032;-77
2022/08/20 07:17:04;;;;;;;6.25;3.97;;;;;;;;;;5062364;28;20037;-77
2022/08/20 07:19:30;;;;;;;8.55;3.45;;;;;;;;;;5074047;28;20028;-77
2022/08/20 07:21:56;;;;;;;7.53;3.90;;;;;;;;;;5069035;28;20072;-78
2022/08/20 07:24:23;;;;;;;7.43;3.78;;;;;;;;;;5070252;28;20035;-77
2022/08/20 07:26:50;;;;;;;8.50;4.13;;;;;;;;;;5073094;28;20057;-77
2022/08/20 07:29:17;;;;;;;7.05;4.53;;;;;;;;;;5073655;28;20067;-77
2022/08/20 07:34:30;;;;;;;7.90;4.75;;;;;;;;;;5072572;28;20050;-78
2022/08/20 07:36:59;;;;;;;6.25;4.30;;;;;;;;;;5069496;28;20385;-78
2022/08/20 07:39:25;;;;;;;6.28;4.65;;;;;;;;;;5073024;28;20726;-78
2022/08/20 07:42:01;;;;;;;7.35;4.00;;;;;;;;;;5075298;28;20033;-78
2022/08/20 07:44:28;;;;;;;5.78;4.25;;;;;;;;;;5072774;28;20024;-78
2022/08/20 07:46:54;;;;;;;5.57;4.35;;;;;;;;;;5071768;28;20025;-77
2022/08/20 07:49:21;;;;;;;5.88;4.07;;;;;;;;;;5068424;28;20409;-78
2022/08/20 07:51:47;;;;;;;6.20;4.30;;;;;;;;;;5066061;28;20062;-78
2022/08/20 07:54:13;;;;;;;6.40;4.30;;;;;;;;;;5070189;28;20458;-78
2022/08/20 07:56:39;;;;;;;7.30;3.80;;;;;;;;;;5070906;28;20036;-78
2022/08/20 07:59:05;;;;;;;6.55;4.20;;;;;;;;;;5071397;28;21869;-78
2022/08/20 08:01:31;;;;;;;8.68;4.45;;;;;;;;;;5067065;28;20034;-78
2022/08/20 08:03:58;;;;;;;5.45;3.88;;;;;;;;;;5074009;28;20040;-78
2022/08/20 08:06:24;;;;;;;9.20;4.82;;;;;;;;;;5071247;28;20452;-78
2022/08/20 08:08:51;;;;;;;8.25;4.72;;;;;;;;;;5071890;28;20037;-78
2022/08/20 08:11:18;;;;;;;7.47;4.15;;;;;;;;;;5066179;28;20067;-78
2022/08/20 08:13:44;;;;;;;6.25;4.25;;;;;;;;;;5074224;28;20044;-78
2022/08/20 08:16:10;;;;;;;5.88;4.57;;;;;;;;;;5075632;28;20059;-78
2022/08/20 08:18:42;;;;;;;6.95;4.55;;;;;;;;;;5068723;28;20024;-78
2022/08/20 08:21:11;;;;;;;;;;;;;;;;;;5066651;28;20025;-78
2022/08/20 08:23:39;;;;;;;9.90;5.20;;;;;;;;;;5068551;28;20324;-77
2022/08/20 08:26:05;;;;;;;8.80;5.55;;;;;;;;;;5065939;28;20143;-77
2022/08/20 08:28:31;;;;;;;6.72;5.07;;;;;;;;;;5069622;28;20109;-78
2022/08/20 08:30:58;;;;;;;6.60;4.75;;;;;;;;;;5056089;28;20519;-78
2022/08/20 08:33:29;;;;;;;7.55;5.32;;;;;;;;;;5067257;28;20525;-77
2022/08/20 08:35:56;;;;;;;11.02;5.18;;;;;;;;;;5067569;28;20032;-77
2022/08/20 08:38:22;;;;;;;6.80;5.03;;;;;;;;;;5067331;28;20031;-78
2022/08/20 08:40:53;;;;;;;10.90;5.30;;;;;;;;;;5074971;28;20390;-77
2022/08/20 08:43:20;;;;;;;7.75;5.28;;;;;;;;;;5063944;28;20040;-78
2022/08/20 08:45:50;;;;;;;10.43;5.57;;;;;;;;;;5067421;28;20033;-78
2022/08/20 08:48:19;;;;;;;9.50;5.68;;;;;;;;;;5071965;28;20571;-78
2022/08/20 08:50:46;;;;;;;7.45;5.63;;;;;;;;;;5071433;28;20111;-77
2022/08/20 08:53:21;;;;;;;10.10;6.60;;;;;;;;;;5074507;28;20032;-78
2022/08/20 08:55:47;;;;;;;6.88;5.40;;;;;;;;;;5072275;28;20070;-78
2022/08/20 08:58:13;;;;;;;8.50;5.88;;;;;;;;;;5069797;28;20039;-77
2022/08/20 09:00:39;;;;;;;8.68;5.90;;;;;;;;;;5071184;28;20722;-78
2022/08/20 09:03:08;;;;;;;7.95;5.45;;;;;;;;;;5065969;28;20028;-78
2022/08/20 09:05:55;;;;;;;6.95;5.53;;;;;;;;;;5071718;28;20099;-78
2022/08/20 09:08:42;;;;;;;10.65;6.50;;;;;;;;;;5069649;28;20036;-78
2022/08/20 09:11:09;;;;;;;7.55;6.47;;;;;;;;;;5070391;28;20101;-78
2022/08/20 09:13:35;;;;;;;9.98;5.75;;;;;;;;;;5069139;28;20032;-78
2022/08/20 09:16:01;;;;;;;6.13;4.93;;;;;;;;;;5067576;28;20036;-78
2022/08/20 09:18:27;;;;;;;7.43;5.70;;;;;;;;;;5063269;28;20712;-78
2022/08/20 09:20:53;;;;;;;8.93;6.28;;;;;;;;;;5065823;28;20120;-78
2022/08/20 09:23:19;;;;;;;7.25;4.90;;;;;;;;;;5068458;28;20048;-78
2022/08/20 09:25:45;;;;;;;7.82;5.68;;;;;;;;;;5070928;28;20437;-77
2022/08/20 09:28:11;;;;;;;7.22;5.60;;;;;;;;;;5074248;28;20025;-77
2022/08/20 09:30:37;;;;;;;9.75;5.60;;;;;;;;;;5069603;28;20041;-78
2022/08/20 09:33:03;;;;;;;7.53;5.10;;;;;;;;;;5064069;28;20029;-77
2022/08/20 09:35:29;;;;;;;6.88;5.03;;;;;;;;;;5074977;28;20451;-78
2022/08/20 09:37:55;;;;;;;6.47;5.53;;;;;;;;;;5069999;28;20113;-77
2022/08/20 09:40:21;;;;;;;8.65;5.15;;;;;;;;;;5065832;28;20048;-77
2022/08/20 09:42:47;;;;;;;7.60;4.90;;;;;;;;;;5079315;28;20040;-78
2022/08/20 09:45:14;;;;;;;6.72;4.97;;;;;;;;;;5072998;28;20111;-77
2022/08/20 09:47:40;;;;;;;6.28;4.30;;;;;;;;;;5065156;28;20032;-77
2022/08/20 09:50:06;;;;;;;7.18;4.00;;;;;;;;;;5063733;28;20039;-77
2022/08/20 09:52:35;;;;;;;6.03;3.72;;;;;;;;;;5065471;28;20032;-78
2022/08/20 09:55:03;;;;;;;5.20;3.90;;;;;;;;;;5063324;28;20115;-77
2022/08/20 09:57:29;;;;;;;6.63;3.80;;;;;;;;;;5072988;28;20040;-77
2022/08/20 10:00:00;;;;;;;6.32;4.30;;;;;;;;;;5066519;28;20036;-77
2022/08/20 10:02:26;;;;;;;8.88;5.05;;;;;;;;;;5064602;28;20036;-77
2022/08/20 10:04:52;;;;;;;8.15;5.57;;;;;;;;;;5067234;28;20033;-77
2022/08/20 10:07:18;;;;;;;8.55;5.28;;;;;;;;;;5067360;28;20060;-77
2022/08/20 10:09:44;;;;;;;6.72;5.05;;;;;;;;;;5067672;28;20056;-78
2022/08/20 10:12:10;;;;;;;8.10;5.75;;;;;;;;;;5065143;28;20051;-77
2022/08/20 10:14:36;;;;;;;6.38;5.15;;;;;;;;;;5068430;28;20032;-77
2022/08/20 10:17:02;;;;;;;11.23;5.85;;;;;;;;;;5069274;28;20058;-77
2022/08/20 10:19:29;;;;;;;9.52;6.07;;;;;;;;;;5066376;28;20031;-78
2022/08/20 10:21:56;;;;;;;7.50;5.43;;;;;;;;;;5064398;28;20492;-77
2022/08/20 10:24:22;;;;;;;7.15;5.10;;;;;;;;;;5065843;28;20032;-77
2022/08/20 10:26:49;;;;;;;5.47;4.18;;;;;;;;;;5070393;28;20496;-77
2022/08/20 10:29:15;;;;;;;6.80;4.78;;;;;;;;;;5069534;28;20357;-77
2022/08/20 10:31:41;;;;;;;5.85;4.72;;;;;;;;;;5078224;28;20028;-78
2022/08/20 10:34:07;;;;;;;6.03;4.85;;;;;;;;;;5069110;28;20033;-77
2022/08/20 10:36:33;;;;;;;7.25;4.60;;;;;;;;;;5065580;28;20107;-77
2022/08/20 10:38:59;;;;;;;6.22;4.10;;;;;;;;;;5063648;28;20087;-77
2022/08/20 10:41:27;;;;;;;5.07;3.55;;;;;;;;;;5063620;28;20044;-77
2022/08/20 10:43:53;;;;;;;6.13;3.88;;;;;;;;;;5061933;28;20025;-77
2022/08/20 10:46:19;;;;;;;6.85;3.75;;;;;;;;;;5064718;28;20020;-77
2022/08/20 10:48:45;;;;;;;5.57;3.85;;;;;;;;;;5064346;28;20061;-77
2022/08/20 10:51:11;;;;;;;6.50;3.30;;;;;;;;;;5064593;28;20375;-77
2022/08/20 10:53:37;;;;;;;4.70;3.42;;;;;;;;;;5050936;28;20058;-77
2022/08/20 10:56:04;;;;;;;7.72;3.72;;;;;;;;;;5065895;28;20036;-77
2022/08/20 10:58:30;;;;;;;4.78;3.42;;;;;;;;;;5064986;28;20054;-77
2022/08/20 11:00:56;;;;;;;5.25;3.50;;;;;;;;;;5065012;28;20024;-77
2022/08/20 11:03:22;;;;;;;4.00;2.72;;;;;;;;;;5056971;28;20115;-77
2022/08/20 11:05:48;;;;;;;3.95;2.17;;;;;;;;;;5069802;28;20104;-77
2022/08/20 11:08:14;;;;;;;4.80;2.10;;;;;;;;;;5069395;28;20027;-77
2022/08/20 11:10:40;;;;;;;5.28;2.25;;;;;;;;;;5067067;28;20068;-77
2022/08/20 11:13:07;;;;;;;5.38;2.40;;;;;;;;;;5061847;28;20530;-77
2022/08/20 11:15:35;;;;;;;3.22;2.25;;;;;;;;;;5069152;28;20033;-77
2022/08/20 11:18:01;;;;;;;3.08;1.80;;;;;;;;;;5070123;28;20036;-77
2022/08/20 11:20:27;;;;;;;5.10;2.10;;;;;;;;;;5071921;28;20042;-77
2022/08/20 11:22:53;;;;;;;8.05;2.50;;;;;;;;;;5071515;28;20037;-77
2022/08/20 11:25:20;;;;;;;3.53;2.03;;;;;;;;;;5067661;28;20028;-77
2022/08/20 11:27:48;;;;;;;3.50;2.38;;;;;;;;;;5058633;28;20028;-77
2022/08/20 11:30:21;;;;;;;4.53;1.80;;;;;;;;;;5067216;28;20039;-77
2022/08/20 11:32:48;;;;;;;3.67;1.83;;;;;;;;;;5072267;28;20769;-77
2022/08/20 11:35:14;;;;;;;2.85;1.83;;;;;;;;;;5066655;28;20036;-77
2022/08/20 11:37:40;;;;;;;3.05;1.95;;;;;;;;;;5067978;28;20888;-77
2022/08/20 11:40:10;;;;;;;2.65;1.73;;;;;;;;;;5070447;28;20513;-77
2022/08/20 11:42:37;;;;;;;4.25;1.58;;;;;;;;;;5068487;28;20044;-77
2022/08/20 11:45:03;;;;;;;3.50;1.65;;;;;;;;;;5067959;28;20031;-77
2022/08/20 11:47:31;;;;;;;4.57;2.15;;;;;;;;;;5071362;28;20059;-77
2022/08/20 11:50:01;;;;;;;4.32;1.98;;;;;;;;;;5069842;28;20081;-77
2022/08/20 11:52:28;;;;;;;2.85;1.85;;;;;;;;;;5075910;28;20028;-77
2022/08/20 11:54:54;;;;;;;2.95;1.67;;;;;;;;;;5052647;28;20665;-77
2022/08/20 11:57:22;;;;;;;2.88;1.83;;;;;;;;;;5060835;28;20036;-77
2022/08/20 11:59:49;;;;;;;3.13;1.65;;;;;;;;;;5072088;28;20066;-77
2022/08/20 12:02:15;;;;;;;4.53;2.20;;;;;;;;;;5064383;28;20618;-77
2022/08/20 12:04:41;;;;;;;4.40;1.80;;;;;;;;;;5075576;28;20090;-77
2022/08/20 12:07:08;;;;;;;3.60;2.28;;;;;;;;;;5073818;28;20025;-77
2022/08/20 12:09:34;;;;;;;3.33;2.20;;;;;;;;;;5075887;28;20029;-77
2022/08/20 12:12:00;;;;;;;3.38;2.30;;;;;;;;;;5071678;28;20028;-77
2022/08/20 12:14:26;;;;;;;5.28;2.55;;;;;;;;;;5069100;28;20099;-78
2022/08/20 12:16:52;;;;;;;4.20;2.72;;;;;;;;;;5062534;28;20131;-77
2022/08/20 12:19:18;;;;;;;4.78;2.63;;;;;;;;;;5075900;28;20032;-77
2022/08/20 12:21:45;;;;;;;3.70;2.30;;;;;;;;;;5074684;28;20051;-77
2022/08/20 12:24:11;;;;;;;4.10;2.35;;;;;;;;;;5070667;28;20028;-77
2022/08/20 12:26:37;;;;;;;3.13;1.77;;;;;;;;;;5071336;28;20134;-78
2022/08/20 12:29:03;;;;;;;3.90;2.20;;;;;;;;;;5067997;28;20074;-78
2022/08/20 12:31:29;;;;;;;3.53;2.28;;;;;;;;;;5071324;28;20041;-77
2022/08/20 12:33:55;;;;;;;3.58;2.58;;;;;;;;;;5065575;28;20416;-77
2022/08/20 12:36:21;;;;;;;3.10;1.90;;;;;;;;;;5070201;28;20036;-77
2022/08/20 12:38:47;;;;;;;4.22;2.35;;;;;;;;;;5059440;28;20033;-77
2022/08/20 12:41:13;;;;;;;3.60;2.17;;;;;;;;;;5072355;28;20090;-78
2022/08/20 12:43:39;;;;;;;4.53;2.17;;;;;;;;;;5075467;28;20107;-78
2022/08/20 12:46:05;;;;;;;5.35;2.05;;;;;;;;;;5062634;28;20029;-77
2022/08/20 12:48:31;;;;;;;3.92;2.17;;;;;;;;;;5066616;28;20043;-78
2022/08/20 12:50:57;;;;;;;2.53;1.77;;;;;;;;;;5068399;28;20462;-78
2022/08/20 12:53:23;;;;;;;2.67;1.70;;;;;;;;;;5070791;28;20028;-78
2022/08/20 12:55:49;;;;;;;2.60;1.67;;;;;;;;;;5070102;28;20082;-78
2022/08/20 12:58:15;;;;;;;3.22;2.33;;;;;;;;;;5069312;28;20082;-78
2022/08/20 13:00:43;;;;;;;3.40;2.15;;;;;;;;;;5069044;28;20086;-78
2022/08/20 13:03:09;;;;;;;3.00;1.70;;;;;;;;;;5064074;28;20107;-78
2022/08/20 13:05:36;;;;;;;2.10;1.48;;;;;;;;;;5076021;28;20115;-78
2022/08/20 13:08:06;;;;;;;3.35;1.80;;;;;;;;;;5068663;28;20459;-77
2022/08/20 13:10:33;;;;;;;3.58;1.80;;;;;;;;;;5074236;28;20113;-77
2022/08/20 13:13:02;;;;;;;4.22;1.88;;;;;;;;;;5069227;28;20078;-77
2022/08/20 13:15:29;;;;;;;3.35;1.48;;;;;;;;;;5071588;28;20033;-78
2022/08/20 13:17:56;;;;;;;4.15;1.35;;;;;;;;;;5066954;28;20037;-78
2022/08/20 13:20:26;;;;;;;4.68;1.50;;;;;;;;;;5068806;28;20036;-78
2022/08/20 13:22:52;;;;;;;2.47;1.40;;;;;;;;;;5066362;28;20044;-78
2022/08/20 13:25:18;;;;;;;3.50;1.23;;;;;;;;;;5069176;28;20027;-77
2022/08/20 13:27:44;;;;;;;2.50;1.00;;;;;;;;;;5069140;28;20393;-77
2022/08/20 13:30:13;;;;;;;1.55;1.00;;;;;;;;;;5069028;28;20021;-78
2022/08/20 13:32:39;;;;;;;1.45;0.88;;;;;;;;;;5065558;28;20033;-78
2022/08/20 13:35:06;;;;;;;2.00;0.90;;;;;;;;;;5066792;28;20029;-78
2022/08/20 13:37:32;;;;;;;1.67;1.00;;;;;;;;;;5064364;28;20037;-77
2022/08/20 13:39:58;;;;;;;2.10;0.70;;;;;;;;;;5068876;28;20044;-78
2022/08/20 13:42:24;;;;;;;1.92;0.50;;;;;;;;;;5064573;28;20481;-78
2022/08/20 13:44:51;;;;;;;0.70;0.30;;;;;;;;;;5062630;28;20111;-77
2022/08/20 13:47:17;;;;;;;0.88;0.50;;;;;;;;;;5057809;28;20028;-78
2022/08/20 13:49:43;;;;;;;1.60;0.60;;;;;;;;;;5068204;28;20043;-77
2022/08/20 13:52:09;;;;;;;1.85;0.60;;;;;;;;;;5069227;28;20109;-77
2022/08/20 13:54:36;;;;;;;0.63;0.50;;;;;;;;;;5062424;28;20036;-78
2022/08/20 13:57:09;;;;;;;0.90;0.55;;;;;;;;;;5069223;28;20040;-78
2022/08/20 13:59:39;;;;;;;2.35;0.70;;;;;;;;;;5068672;28;20478;-78
2022/08/20 14:02:05;;;;;;;2.70;0.60;;;;;;;;;;5066601;28;20033;-78
2022/08/20 14:04:31;;;;;;;1.50;0.70;;;;;;;;;;5068817;28;20167;-78
2022/08/20 14:06:57;;;;;;;1.98;0.70;;;;;;;;;;5069478;28;20107;-77
2022/08/20 14:09:23;;;;;;;1.20;0.70;;;;;;;;;;5065950;28;20021;-77
2022/08/20 14:11:49;;;;;;;3.88;1.30;;;;;;;;;;5064564;28;20036;-78
2022/08/20 14:14:15;;;;;;;1.85;1.10;;;;;;;;;;5058812;28;20394;-78
2022/08/20 14:16:41;;;;;;;3.08;1.42;;;;;;;;;;5063643;28;20111;-78
2022/08/20 14:19:07;;;;;;;3.53;1.48;;;;;;;;;;5067413;28;20030;-78
2022/08/20 14:21:33;;;;;;;1.75;1.20;;;;;;;;;;5061962;28;20621;-78
2022/08/20 14:24:00;;;;;;;1.70;0.90;;;;;;;;;;5063403;28;20043;-78
2022/08/20 14:26:26;;;;;;;6.45;1.20;;;;;;;;;;5066671;28;20042;-77
2022/08/20 14:28:52;;;;;;;2.65;1.17;;;;;;;;;;5066880;28;20116;-77
2022/08/20 14:31:18;;;;;;;1.75;1.15;;;;;;;;;;5067637;28;20036;-77
2022/08/20 14:33:44;;;;;;;4.22;1.17;;;;;;;;;;5071037;28;20078;-78
2022/08/20 14:36:10;;;;;;;3.42;1.10;;;;;;;;;;5062188;28;20425;-77
2022/08/20 14:38:40;;;;;;;2.75;1.20;;;;;;;;;;5064862;28;20056;-77
2022/08/20 14:41:06;;;;;;;2.13;1.00;;;;;;;;;;5064591;28;20037;-77
2022/08/20 14:43:32;;;;;;;5.20;0.90;;;;;;;;;;5064350;28;20811;-77
2022/08/20 14:45:58;;;;;;;2.38;0.93;;;;;;;;;;5063100;28;20036;-77
2022/08/20 14:48:26;;;;;;;1.85;0.90;;;;;;;;;;5063355;28;20027;-77